Terminal Aerodrome Forecast
Issued by NWS

Home | Current Version | Previous Version | Text Only | Print | Product List | Glossary On
Versions: 1 2 3 4 5 6 7 8 9 10 11 12 13
000
FTUS45 KVEF 201127
TAFEED
TAF
KEED 201127Z 2012/2112 25008KT P6SM SCT050 BKN150
     FM202000 18012G20KT P6SM -SHRA BKN050 OVC090
     FM210000 21020G28KT P6SM -RA BKN010 OVC030
     FM210600 27012G20KT P6SM VCSH BKN030 OVC050=

USA.gov is the U.S. government's official web portal to all federal, state and local government web resources and services.